Time;durP1;ratioP1;P1;durP2;ratioP2;P2;SDS_P1;SDS_P2;PMS_P1;PMS_P2;Temp;Humidity;BMP_temperature;BMP_pressure;BME280_temperature;BME280_humidity;BME280_pressure;Samples;Min_cycle;Max_cycle;Signal;HPM_P1;HPM_P2
2023/04/17 05:04:26;;;;;;;;;6.00;5.00;;;;;12.43;55.54;45024.41;4956114;23;46031;-92
2023/04/17 05:07:07;;;;;;;;;9.00;8.00;;;;;11.91;56.02;43677.63;4937323;28;46513;-94
2023/04/17 05:09:35;;;;;;;;;7.67;7.67;;;;;11.63;55.97;43285.28;4940200;28;45491;-94
2023/04/17 05:12:01;;;;;;;;;7.33;7.33;;;;;11.81;56.08;42685.44;4940095;28;45663;-94
2023/04/17 05:14:27;;;;;;;;;8.67;8.67;;;;;11.07;56.39;41322.00;4922476;28;45431;-94
2023/04/17 05:17:07;;;;;;;;;9.33;9.33;;;;;11.98;56.38;41029.56;4922643;28;47235;-93
2023/04/17 05:26:47;;;;;;;;;9.67;8.67;;;;;10.98;56.30;37019.22;4875141;29;45552;-92
2023/04/17 05:35:50;;;;;;;;;8.33;8.33;;;;;12.67;57.12;33117.66;4817766;29;45637;-95
2023/04/17 06:06:40;;;;;;;;;12.00;10.00;;;;;12.35;57.71;23503.25;5987938;23;46344;-88
2023/04/17 06:09:09;;;;;;;;;12.67;9.67;;;;;11.36;57.56;22456.06;4968351;28;45722;-90
2023/04/17 06:35:39;;;;;;;;;15.67;12.67;;;;;11.50;58.86;17440.47;5163613;23;45654;-87
2023/04/17 06:38:05;;;;;;;;;11.33;11.33;;;;;12.91;58.26;17151.66;4982058;28;46507;-91
2023/04/17 06:40:31;;;;;;;;;12.33;10.67;;;;;13.09;58.64;16487.13;4976410;28;45451;-90
2023/04/17 06:42:56;;;;;;;;;17.00;15.67;;;;;12.88;58.56;16145.31;4959200;28;45427;-91
2023/04/17 06:45:22;;;;;;;;;16.00;11.67;;;;;12.82;58.78;15473.16;4977206;28;45346;-91
2023/04/17 06:47:47;;;;;;;;;11.00;11.00;;;;;12.83;58.59;15138.22;4976208;28;46637;-90
2023/04/17 06:50:12;;;;;;;;;13.67;11.00;;;;;12.67;58.83;14798.59;4976945;28;52665;-88
2023/04/17 06:52:38;;;;;;;;;9.00;8.33;;;;;12.92;58.87;14470.63;4976911;28;45534;-89
2023/04/17 06:55:03;;;;;;;;;12.67;11.33;;;;;12.78;59.08;13796.94;4959468;28;45617;-87
2023/04/17 06:57:29;;;;;;;;;12.33;12.33;;;;;12.27;58.84;13448.38;4990948;23;47958;-88
2023/04/17 07:00:03;;;;;;;;;10.67;10.67;;;;;12.46;59.28;13453.56;4990924;28;45396;-89
2023/04/17 07:02:31;;;;;;;;;10.67;10.00;;;;;11.40;58.92;13091.06;4987821;28;45456;-89
2023/04/17 07:04:56;;;;;;;;;10.67;7.67;;;;;11.75;59.31;12765.97;4996521;28;45511;-89
2023/04/17 07:07:21;;;;;;;;;12.67;12.33;;;;;12.57;58.84;12117.41;5005483;28;45411;-89
2023/04/17 07:09:50;;;;;;;;;12.00;8.67;;;;;12.50;59.13;11446.47;4989463;28;45467;-89
2023/04/17 07:12:25;;;;;;;;;11.67;11.33;;;;;12.84;59.09;11119.75;4996759;28;45543;-90
2023/04/17 07:14:50;;;;;;;;;15.33;12.67;;;;;12.32;59.14;10773.50;4996783;28;45775;-88
2023/04/17 07:17:16;;;;;;;;;13.00;12.33;;;;;12.08;59.38;10433.84;5004145;28;46248;-88
2023/04/17 07:19:42;;;;;;;;;16.67;15.00;;;;;13.07;59.52;9451.16;4982309;28;45425;-89
2023/04/17 07:22:08;;;;;;;;;14.33;13.33;;;;;12.27;59.45;9435.03;5000151;28;45506;-89
2023/04/17 07:24:44;;;;;;;;;15.33;13.33;;;;;12.19;59.31;9099.25;4991591;28;45309;-91
2023/04/17 07:29:54;;;;;;;;;15.67;13.67;;;;;12.93;60.26;5769.13;5086676;23;71769;-88
2023/04/17 07:32:29;;;;;;;;;18.33;15.33;;;;;13.15;60.76;3766.31;5013496;28;45522;-88
2023/04/17 07:34:55;;;;;;;;;35.67;31.00;;;;;13.02;62.96;-2245.81;5008751;28;45737;-85
2023/04/17 07:37:20;;;;;;;;;31.00;27.33;;;;;13.01;63.67;-5914.31;4987261;28;45795;-86
2023/04/17 07:39:48;;;;;;;;;20.33;17.33;;;;;12.66;63.82;-7578.16;4968823;28;45824;-86
2023/04/17 07:42:15;;;;;;;;;22.67;19.00;;;;;12.61;64.38;-8909.53;4998311;28;45749;-85
2023/04/17 07:44:40;;;;;;;;;19.33;16.33;;;;;12.64;63.74;-9242.66;4999249;28;45482;-86
2023/04/17 07:47:36;;;;;;;;;;;;;;;;;;;;;
2023/04/17 07:50:02;;;;;;;;;18.33;17.00;;;;;11.54;63.00;-7902.59;4875329;29;73133;-85
2023/04/17 07:55:57;;;;;;;;;18.33;15.00;;;;;12.38;62.37;-6910.41;5043586;23;46048;-92
2023/04/17 07:58:53;;;;;;;;;17.00;16.00;;;;;12.92;62.05;-6913.63;4989045;28;45739;-92
2023/04/17 08:01:20;;;;;;;;;12.67;12.67;;;;;12.25;61.94;-6909.63;4887805;29;45630;-91
2023/04/17 08:03:45;;;;;;;;;14.67;14.00;;;;;12.53;62.01;-6911.31;4878062;29;45548;-92
2023/04/17 08:09:43;;;;;;;;;14.67;13.33;;;;;12.37;61.90;-6910.34;4877855;28;46088;-86
2023/04/17 08:12:09;;;;;;;;;12.33;12.00;;;;;12.54;62.13;-6911.34;4879550;29;45520;-87
2023/04/17 08:14:34;;;;;;;;;9.67;9.33;;;;;11.72;61.70;-6906.34;4880369;29;45975;-86
2023/04/17 08:17:00;;;;;;;;;13.00;13.00;;;;;12.49;62.10;-6578.03;4880685;29;45586;-88
2023/04/17 08:19:34;;;;;;;;;11.00;11.00;;;;;11.52;61.74;-6572.66;4880051;29;45677;-88
2023/04/17 08:22:07;;;;;;;;;12.67;10.33;;;;;12.29;61.55;-6244.06;4879888;29;45700;-89
2023/04/17 08:24:32;;;;;;;;;17.67;11.67;;;;;12.28;61.43;-6244.00;4864313;29;45578;-88
2023/04/17 08:28:00;;;;;;;;;14.67;13.00;;;;;12.08;61.38;-6242.97;4879948;29;45529;-88
2023/04/17 08:33:01;;;;;;;;;17.33;15.33;;;;;11.65;61.63;-6573.38;5002881;23;71752;-87
2023/04/17 08:35:26;;;;;;;;;11.00;11.00;;;;;13.01;61.79;-6580.94;4993304;28;45812;-87
2023/04/17 08:37:54;;;;;;;;;13.00;11.67;;;;;12.79;61.74;-6579.75;4988442;28;45571;-87
2023/04/17 08:40:22;;;;;;;;;16.00;14.00;;;;;11.61;61.64;-6905.72;4978662;28;46416;-87
2023/04/17 08:42:49;;;;;;;;;15.00;15.00;;;;;13.48;61.48;-6917.06;4980953;28;45523;-87
2023/04/17 08:45:14;;;;;;;;;16.33;13.67;;;;;12.36;61.48;-6910.25;4981633;28;45773;-87
2023/04/17 08:47:42;;;;;;;;;12.67;12.67;;;;;12.26;61.58;-7242.50;4998733;23;45452;-86
2023/04/17 08:50:25;;;;;;;;;15.67;13.67;;;;;12.73;61.55;-7245.63;4985425;23;46931;-86
2023/04/17 08:52:51;;;;;;;;;17.00;15.00;;;;;13.51;61.84;-7250.72;4995101;28;45437;-87
2023/04/17 08:55:28;;;;;;;;;15.00;11.67;;;;;12.13;61.41;-7241.63;4980235;28;45535;-88
2023/04/17 09:00:30;;;;;;;;;18.33;15.67;;;;;13.56;61.34;-7251.06;4996830;23;74240;-86
2023/04/17 09:02:57;;;;;;;;;19.00;16.33;;;;;13.71;61.84;-7919.22;4943255;28;46000;-87
2023/04/17 09:05:24;;;;;;;;;18.67;16.00;;;;;12.32;61.83;-7908.53;4982205;23;45956;-87
2023/04/17 09:08:04;;;;;;;;;18.67;16.00;;;;;13.76;62.06;-7919.53;4978323;28;45425;-87
2023/04/17 09:10:36;;;;;;;;;21.33;17.00;;;;;12.41;61.85;-7909.28;4977496;28;47369;-87
2023/04/17 09:19:25;;;;;;;;;22.00;17.00;;;;;13.49;61.74;-8584.34;4928764;28;45564;-86
2023/04/17 09:21:53;;;;;;;;;19.67;16.00;;;;;12.65;61.94;-8577.00;4957764;28;45556;-84
2023/04/17 09:24:54;;;;;;;;;16.67;15.00;;;;;13.30;61.80;-8582.66;4960103;28;45392;-86
2023/04/17 09:27:24;;;;;;;;;21.00;20.67;;;;;13.35;61.99;-8583.09;4904419;28;45541;-86
2023/04/17 09:30:03;;;;;;;;;21.33;16.33;;;;;12.44;61.78;-8575.19;4910062;28;45634;-86
2023/04/17 09:35:07;;;;;;;;;24.00;20.67;;;;;12.97;61.92;-8912.81;5100579;23;71762;-85
2023/04/17 09:37:53;;;;;;;;;20.33;16.33;;;;;14.07;61.72;-8923.03;4977651;28;45452;-84
2023/04/17 09:40:21;;;;;;;;;18.00;18.00;;;;;13.39;61.75;-8916.69;4983347;28;45519;-85
2023/04/17 09:43:21;;;;;;;;;10.00;8.33;;;;;13.11;61.68;-8914.13;4986761;28;45964;-87
2023/04/17 09:45:46;;;;;;;;;16.33;16.33;;;;;13.07;61.61;-9246.91;4978705;28;45431;-85
2023/04/17 09:48:12;;;;;;;;;16.33;16.00;;;;;14.16;61.86;-9257.50;4974553;28;45706;-88
2023/04/17 09:50:38;;;;;;;;;20.00;17.33;;;;;13.16;61.75;-9247.72;4985854;28;45435;-87
2023/04/17 09:53:05;;;;;;;;;16.00;14.67;;;;;13.42;61.98;-9583.53;4984381;28;46310;-87
2023/04/17 09:55:36;;;;;;;;;14.33;13.67;;;;;13.52;61.66;-9251.31;4992812;28;45799;-87
2023/04/17 09:58:06;;;;;;;;;17.67;14.67;;;;;14.24;62.01;-9258.25;4987869;28;45488;-87
2023/04/17 10:00:31;;;;;;;;;15.67;13.67;;;;;13.51;62.07;-9584.53;4985029;28;45490;-87
2023/04/17 10:02:58;;;;;;;;;18.67;14.00;;;;;14.29;61.71;-9592.47;4996919;28;45500;-86
2023/04/17 10:05:26;;;;;;;;;22.33;14.00;;;;;14.12;61.75;-9590.78;4986358;28;45428;-86
2023/04/17 10:07:51;;;;;;;;;21.67;16.67;;;;;14.10;61.73;-9590.53;4987664;28;45787;-86
2023/04/17 10:10:32;;;;;;;;;20.33;13.33;;;;;14.34;61.90;-9593.00;4980226;28;45453;-86
2023/04/17 10:13:05;;;;;;;;;21.00;17.00;;;;;14.36;62.05;-9593.19;4978212;28;46463;-90
2023/04/17 10:15:32;;;;;;;;;17.33;16.67;;;;;14.22;61.65;-9925.44;4982205;28;45505;-87
2023/04/17 10:18:23;;;;;;;;;14.67;13.00;;;;;14.41;61.70;-9593.72;4979297;28;45528;-90
2023/04/17 10:20:49;;;;;;;;;21.67;16.33;;;;;14.24;61.54;-9925.66;4960992;28;45616;-90
2023/04/17 10:23:28;;;;;;;;;17.33;17.33;;;;;14.45;61.98;-9927.88;4984652;28;46413;-87
2023/04/17 10:26:26;;;;;;;;;16.33;16.33;;;;;14.47;61.91;-9928.16;4986905;28;45473;-89
2023/04/17 10:28:53;;;;;;;;;17.67;16.33;;;;;14.48;61.65;-9928.19;4907502;28;45784;-87
2023/04/17 10:31:19;;;;;;;;;20.00;17.00;;;;;14.03;61.88;-9923.34;4916195;28;45434;-88
2023/04/17 10:34:00;;;;;;;;;16.67;13.67;;;;;13.18;61.83;-9581.03;4914556;28;45995;-87
2023/04/17 10:36:37;;;;;;;;;18.33;13.67;;;;;14.51;61.84;-9928.53;4913217;28;45922;-87
2023/04/17 10:39:15;;;;;;;;;15.00;15.00;;;;;14.17;61.18;-9924.88;4916535;28;45868;-88
2023/04/17 10:42:16;;;;;;;;;14.00;14.00;;;;;14.51;62.05;-9928.53;4916096;28;45655;-88
2023/04/17 10:44:44;;;;;;;;;15.67;13.33;;;;;13.73;61.69;-9920.19;4893599;28;46237;-88
2023/04/17 10:47:13;;;;;;;;;16.67;16.33;;;;;14.53;62.00;-9928.75;4903315;28;45483;-88
2023/04/17 10:49:49;;;;;;;;;19.33;14.67;;;;;14.54;61.71;-9928.91;4915580;28;45843;-87
2023/04/17 10:55:08;;;;;;;;;20.33;16.67;;;;;14.58;61.92;-10263.13;4973665;28;46047;-87
2023/04/17 10:57:54;;;;;;;;;18.00;13.67;;;;;14.24;61.87;-10259.25;4958417;28;45400;-88
2023/04/17 11:01:24;;;;;;;;;23.00;14.33;;;;;14.62;61.84;-10263.53;4959071;28;45350;-89
2023/04/17 11:03:50;;;;;;;;;14.00;13.33;;;;;13.49;61.57;-10250.75;4859425;29;45440;-88
2023/04/17 11:06:16;;;;;;;;;15.33;12.67;;;;;14.09;61.69;-10257.56;4858738;29;45575;-88
2023/04/17 11:08:41;;;;;;;;;15.33;14.33;;;;;13.58;61.63;-10251.81;4859328;29;45660;-87
2023/04/17 11:11:10;;;;;;;;;15.33;13.67;;;;;14.63;61.63;-10597.53;4860719;29;45491;-87
2023/04/17 11:13:36;;;;;;;;;15.67;13.00;;;;;14.28;61.71;-10593.38;4878004;29;45396;-87
2023/04/17 11:16:03;;;;;;;;;14.33;14.33;;;;;13.76;61.51;-10587.19;4877674;29;45477;-86
2023/04/17 11:18:28;;;;;;;;;21.33;15.33;;;;;14.75;62.06;-10598.97;4878073;29;45501;-86
2023/04/17 11:20:59;;;;;;;;;16.50;15.50;;;;;13.72;61.82;-10586.75;4877589;29;45693;-86
2023/04/17 11:23:29;;;;;;;;;15.33;14.67;;;;;13.62;61.87;-10585.53;4878149;29;45412;-86
2023/04/17 11:25:54;;;;;;;;;18.33;12.33;;;;;14.62;61.91;-10597.34;4877193;29;45743;-87
2023/04/17 11:28:20;;;;;;;;;21.67;17.00;;;;;14.71;61.90;-10598.50;4870378;29;46504;-87
2023/04/17 11:33:48;;;;;;;;;15.33;13.33;;;;;13.33;61.68;-10582.06;5045006;23;45437;-86
2023/04/17 11:36:13;;;;;;;;;13.67;11.67;;;;;14.26;61.64;-10593.09;4964793;28;46908;-89
2023/04/17 11:41:16;;;;;;;;;13.33;12.67;;;;;14.36;61.65;-10594.31;5002822;23;45479;-86
2023/04/17 11:49:42;;;;;;;;;13.67;12.00;;;;;14.24;61.67;-10592.84;5140598;23;71874;-86
2023/04/17 11:52:29;;;;;;;;;14.67;12.00;;;;;13.49;61.74;-10583.97;4942563;28;45496;-86
2023/04/17 11:55:01;;;;;;;;;15.67;14.33;;;;;13.96;61.90;-10589.56;4897508;28;45594;-91
2023/04/17 11:57:26;;;;;;;;;14.00;12.33;;;;;14.76;61.65;-10599.03;4903044;28;48133;-87
2023/04/17 11:59:52;;;;;;;;;15.00;11.00;;;;;13.86;61.69;-10588.34;4909771;28;45656;-88
2023/04/17 12:05:17;;;;;;;;;11.00;11.00;;;;;14.53;62.01;-10596.38;4885752;28;45521;-92
2023/04/17 12:10:41;;;;;;;;;14.33;12.00;;;;;13.84;61.74;-10254.75;4908362;28;45476;-91
2023/04/17 12:13:08;;;;;;;;;14.67;10.00;;;;;13.30;61.48;-10248.66;4897482;28;45976;-85
2023/04/17 12:15:34;;;;;;;;;16.33;9.33;;;;;13.28;61.76;-10581.53;4897915;28;45565;-87
2023/04/17 12:18:45;;;;;;;;;16.67;12.00;;;;;14.78;62.04;-10599.34;4903526;28;46605;-87
2023/04/17 12:21:11;;;;;;;;;14.33;11.67;;;;;13.77;61.76;-10253.91;4943145;23;45763;-86
2023/04/17 12:23:37;;;;;;;;;12.00;12.00;;;;;14.68;61.53;-10598.13;4972876;28;45418;-89
2023/04/17 12:26:02;;;;;;;;;13.67;13.67;;;;;13.34;61.45;-10582.19;4961452;28;45463;-88
2023/04/17 12:28:29;;;;;;;;;14.00;13.67;;;;;13.77;61.65;-10587.31;5054487;23;45487;-88
2023/04/17 12:34:17;;;;;;;;;14.00;12.67;;;;;14.42;61.37;-10594.97;4943361;28;45509;-89
2023/04/17 12:36:52;;;;;;;;;10.00;9.00;;;;;13.55;61.36;-10251.41;4942201;28;45564;-89
2023/04/17 12:39:20;;;;;;;;;16.33;12.33;;;;;13.61;60.94;-10585.34;4954144;28;46640;-89
2023/04/17 12:41:55;;;;;;;;;12.33;10.33;;;;;13.97;61.49;-10589.69;4953021;28;45599;-89
2023/04/17 12:46:59;;;;;;;;;8.67;6.33;;;;;14.55;61.67;-10596.53;5024677;23;58464;-91
2023/04/17 12:49:25;;;;;;;;;14.67;13.00;;;;;14.44;61.28;-10595.22;4965840;23;45507;-92
2023/04/17 12:51:50;;;;;;;;;11.00;10.33;;;;;14.19;61.36;-10592.22;4967284;28;45498;-91
2023/04/17 12:54:26;;;;;;;;;17.33;12.67;;;;;14.17;61.25;-10592.00;4964767;28;45523;-91
2023/04/17 12:56:51;;;;;;;;;15.67;13.67;;;;;14.69;61.62;-10598.25;4964434;28;45656;-90
2023/04/17 12:59:16;;;;;;;;;11.33;11.33;;;;;14.14;61.67;-10591.75;4974382;28;46092;-90
2023/04/17 13:01:42;;;;;;;;;12.33;10.67;;;;;14.73;61.25;-10598.66;4964539;28;45454;-89
2023/04/17 13:04:07;;;;;;;;;9.67;9.67;;;;;14.40;61.33;-10594.72;4963851;28;45542;-91
2023/04/17 13:06:33;;;;;;;;;15.33;13.00;;;;;14.82;61.65;-10599.69;4967657;28;45454;-91
2023/04/17 13:08:58;;;;;;;;;14.00;12.67;;;;;13.94;61.64;-10589.38;4966385;28;45557;-91
2023/04/17 13:11:23;;;;;;;;;16.67;14.67;;;;;14.06;61.62;-10590.72;4962042;28;45403;-92
2023/04/17 13:13:55;;;;;;;;;14.33;9.33;;;;;13.93;61.45;-10589.19;4976531;28;45460;-89
2023/04/17 13:16:20;;;;;;;;;13.33;10.33;;;;;14.33;61.38;-10593.94;4965641;28;45457;-89
2023/04/17 13:18:45;;;;;;;;;16.00;12.67;;;;;14.35;61.39;-10594.19;4964220;28;45481;-89
2023/04/17 13:21:11;;;;;;;;;19.00;10.00;;;;;14.93;61.64;-10601.09;4961224;28;45458;-86
2023/04/17 13:23:39;;;;;;;;;10.67;9.33;;;;;13.33;61.45;-10582.00;4961355;28;45787;-88
2023/04/17 13:26:07;;;;;;;;;17.33;13.33;;;;;14.91;61.44;-10600.78;4970338;28;45452;-88
2023/04/17 13:28:33;;;;;;;;;10.33;8.67;;;;;14.57;61.31;-10596.78;4968361;28;47273;-88
2023/04/17 13:30:58;;;;;;;;;15.00;12.33;;;;;14.65;62.09;-10597.75;4964542;28;45445;-90
2023/04/17 13:40:09;;;;;;;;;15.00;14.00;;;;;13.64;61.39;-10585.72;5016740;23;45715;-85
2023/04/17 13:42:35;;;;;;;;;17.67;12.00;;;;;14.80;61.93;-10599.53;4968516;28;45514;-89
2023/04/17 13:45:00;;;;;;;;;14.00;13.00;;;;;14.00;61.73;-10590.03;4966800;28;45639;-93
2023/04/17 13:47:26;;;;;;;;;12.33;8.33;;;;;14.61;61.94;-10597.22;4974330;28;45462;-87
2023/04/17 13:52:50;;;;;;;;;16.67;14.67;;;;;13.91;61.63;-10588.94;5089211;23;45465;-90
2023/04/17 13:55:42;;;;;;;;;11.33;11.33;;;;;14.87;61.99;-10934.22;4979009;28;45736;-92
2023/04/17 13:58:08;;;;;;;;;17.00;16.00;;;;;14.00;62.06;-10589.97;4990975;28;45396;-92
2023/04/17 14:00:33;;;;;;;;;13.00;13.00;;;;;13.42;61.79;-10583.09;4979184;28;45752;-88
2023/04/17 14:03:02;;;;;;;;;21.67;17.00;;;;;13.39;61.69;-10915.87;4973475;28;45496;-87
2023/04/17 14:05:27;;;;;;;;;17.67;15.33;;;;;14.01;62.13;-10923.56;4978502;28;45524;-90
2023/04/17 14:07:52;;;;;;;;;20.33;16.67;;;;;14.08;61.84;-10924.50;4980852;28;45606;-92
2023/04/17 14:10:21;;;;;;;;;20.00;14.67;;;;;14.36;61.72;-10928.00;4961713;28;47260;-92
2023/04/17 14:12:46;;;;;;;;;14.33;13.33;;;;;14.95;62.38;-10935.22;4979802;28;45495;-86
2023/04/17 14:15:12;;;;;;;;;9.67;9.67;;;;;14.70;61.78;-11265.91;4981507;28;45492;-86
2023/04/17 14:17:41;;;;;;;;;14.67;13.00;;;;;13.52;62.05;-11250.69;4979928;28;45511;-89
2023/04/17 14:20:11;;;;;;;;;16.00;13.67;;;;;14.95;61.82;-11269.16;4993411;28;45599;-85
2023/04/17 14:22:36;;;;;;;;;19.33;15.67;;;;;14.49;62.06;-10929.53;4981613;28;45456;-86
2023/04/17 14:25:01;;;;;;;;;17.00;14.00;;;;;14.63;61.77;-10931.31;4992657;28;45506;-92
2023/04/17 14:27:27;;;;;;;;;20.00;16.33;;;;;13.53;61.78;-11250.81;4969455;28;45547;-88
2023/04/17 14:30:12;;;;;;;;;13.67;13.33;;;;;13.46;62.23;-11249.88;4969321;28;46746;-88
2023/04/17 14:32:41;;;;;;;;;19.33;15.33;;;;;14.98;61.75;-11269.56;4958545;28;45480;-91
2023/04/17 14:37:41;;;;;;;;;16.67;15.33;;;;;14.64;61.89;-11265.13;4093162;26;46081;-84
2023/04/17 14:40:19;;;;;;;;;17.00;14.00;;;;;14.97;61.77;-11269.50;4935028;28;46346;-89
2023/04/17 14:42:47;;;;;;;;;15.00;14.33;;;;;15.05;62.04;-11604.44;4938659;28;45447;-90
2023/04/17 14:45:18;;;;;;;;;16.33;14.67;;;;;14.08;62.19;-11257.91;4936655;28;45541;-92
2023/04/17 14:59:08;;;;;;;;;13.33;13.33;;;;;14.25;62.06;-11593.63;4955162;23;46287;-91
2023/04/17 15:01:33;;;;;;;;;10.00;10.00;;;;;14.29;62.18;-11594.16;4956927;28;46276;-92
2023/04/17 15:03:59;;;;;;;;;11.33;10.33;;;;;14.03;62.12;-11924.03;4938694;28;45784;-90
2023/04/17 15:06:24;;;;;;;;;15.00;12.00;;;;;14.09;61.73;-11924.97;4964678;28;45440;-87
2023/04/17 15:08:50;;;;;;;;;17.00;12.67;;;;;13.83;61.67;-11921.31;4976628;28;45593;-90
2023/04/17 15:11:27;;;;;;;;;13.67;11.67;;;;;14.00;61.63;-11923.66;4944601;28;47216;-90
2023/04/17 15:13:52;;;;;;;;;10.00;10.00;;;;;14.97;62.31;-12271.13;4954704;28;45681;-91
2023/04/17 15:16:17;;;;;;;;;18.33;15.33;;;;;14.20;61.81;-11926.47;4956319;28;45357;-94
2023/04/17 15:18:43;;;;;;;;;10.33;10.33;;;;;15.50;61.50;-12278.78;4943836;28;45508;-89
2023/04/17 15:21:41;;;;;;;;;14.67;13.33;;;;;15.17;61.71;-12273.94;4950813;28;47518;-95
2023/04/17 15:24:06;;;;;;;;;14.67;11.00;;;;;14.90;61.63;-12270.03;4879271;29;45550;-93
2023/04/17 15:26:32;;;;;;;;;16.67;10.67;;;;;15.21;61.55;-12608.50;4884892;29;46002;-89
2023/04/17 15:28:59;;;;;;;;;19.33;14.00;;;;;15.68;61.57;-12615.50;4890387;29;45551;-90
2023/04/17 15:31:25;;;;;;;;;12.67;12.00;;;;;15.43;61.49;-12277.75;4883650;29;46215;-93
2023/04/17 15:33:50;;;;;;;;;14.67;10.33;;;;;15.70;61.36;-12615.88;4893103;29;45786;-86
2023/04/17 15:36:15;;;;;;;;;14.67;11.67;;;;;15.62;61.78;-12614.66;4896500;29;51274;-91
2023/04/17 15:38:41;;;;;;;;;14.33;12.33;;;;;15.31;61.73;-12609.97;4897417;29;45528;-90
2023/04/17 15:41:06;;;;;;;;;14.00;11.00;;;;;15.47;61.60;-12278.25;4883194;29;46882;-91
2023/04/17 15:43:31;;;;;;;;;16.67;14.33;;;;;15.70;61.64;-12281.59;4881458;29;45457;-89
2023/04/17 15:45:58;;;;;;;;;10.00;10.00;;;;;15.69;61.55;-12615.72;4895152;29;45478;-93
2023/04/17 15:48:23;;;;;;;;;12.33;12.33;;;;;15.65;61.54;-12615.13;4887651;29;45432;-96
2023/04/17 15:50:49;;;;;;;;;7.67;7.67;;;;;15.60;61.32;-12614.41;4881025;29;45489;-96
2023/04/17 15:53:14;;;;;;;;;17.00;15.00;;;;;15.69;61.50;-12281.44;4886007;29;45429;-96
2023/04/17 15:55:39;;;;;;;;;17.33;13.33;;;;;15.68;61.67;-12281.31;4888138;29;45387;-93
2023/04/17 15:58:05;;;;;;;;;9.33;9.33;;;;;15.55;61.63;-12279.44;4881506;29;45428;-96
2023/04/17 16:00:30;;;;;;;;;14.00;11.67;;;;;15.68;61.65;-12281.31;4936885;28;47792;-96
2023/04/17 16:02:55;;;;;;;;;9.67;9.67;;;;;15.68;61.81;-12281.31;4941361;28;45415;-95
2023/04/17 16:05:21;;;;;;;;;10.67;10.67;;;;;15.68;61.77;-12281.38;4928019;28;45449;-96
2023/04/17 16:07:46;;;;;;;;;13.00;13.00;;;;;15.68;61.83;-12281.38;4934304;28;45414;-88
2023/04/17 16:10:13;;;;;;;;;12.67;10.67;;;;;15.58;61.67;-12614.03;4932385;28;46222;-89
2023/04/17 16:12:42;;;;;;;;;11.00;11.00;;;;;15.36;61.65;-12610.81;4947268;28;45498;-93
2023/04/17 16:15:10;;;;;;;;;15.33;14.00;;;;;15.60;61.71;-12614.34;4947215;28;45426;-96
2023/04/17 16:17:35;;;;;;;;;12.33;12.33;;;;;15.47;61.76;-12612.34;4953327;28;45617;-93
2023/04/17 16:20:02;;;;;;;;;14.33;12.67;;;;;15.67;61.68;-12615.41;4942112;28;46413;-94
2023/04/17 16:22:28;;;;;;;;;9.33;9.33;;;;;15.73;62.03;-12616.34;4941613;28;45516;-93
2023/04/17 16:24:54;;;;;;;;;10.00;8.00;;;;;15.49;62.15;-12612.72;4939363;28;45429;-93
2023/04/17 16:27:24;;;;;;;;;13.00;10.33;;;;;15.27;61.52;-12609.41;4925409;28;45500;-94
2023/04/17 16:29:50;;;;;;;;;12.67;12.67;;;;;15.23;61.43;-12608.81;4932676;28;45653;-93
2023/04/17 16:32:15;;;;;;;;;14.33;14.00;;;;;15.73;61.99;-12616.34;4930017;28;45513;-94
2023/04/17 16:34:40;;;;;;;;;14.33;13.00;;;;;15.29;61.47;-12609.66;4919767;28;45426;-92
2023/04/17 16:40:29;;;;;;;;;14.33;12.33;;;;;15.47;61.73;-12612.34;4944552;23;46067;-94
2023/04/17 16:42:57;;;;;;;;;14.33;12.00;;;;;14.81;61.88;-12602.50;4930476;28;45430;-93
2023/04/17 16:45:23;;;;;;;;;13.00;10.00;;;;;15.75;62.00;-12616.56;4950998;28;45537;-93
2023/04/17 16:47:48;;;;;;;;;13.00;9.33;;;;;15.29;61.67;-12609.66;4954486;28;45502;-94
2023/04/17 16:50:13;;;;;;;;;15.50;12.00;;;;;15.29;61.78;-12943.63;4950715;28;47973;-92
2023/04/17 16:52:40;;;;;;;;;9.00;7.33;;;;;15.77;61.91;-12951.19;4956343;28;45510;-95
2023/04/17 16:55:06;;;;;;;;;9.67;9.67;;;;;15.66;62.13;-12949.34;4944294;28;45496;-93
2023/04/17 16:57:35;;;;;;;;;8.33;7.33;;;;;15.81;61.62;-12951.75;4937191;28;45477;-94
2023/04/17 17:00:00;;;;;;;;;14.33;12.00;;;;;14.34;62.19;-12928.84;4951929;28;46408;-95
2023/04/17 17:02:25;;;;;;;;;14.00;12.67;;;;;14.42;61.88;-12930.13;4962983;28;45444;-95
2023/04/17 17:04:51;;;;;;;;;12.33;11.33;;;;;15.79;62.03;-12951.41;4952579;28;45631;-84
2023/04/17 17:07:16;;;;;;;;;12.67;12.00;;;;;15.77;61.79;-12951.19;4957746;28;45461;-87
2023/04/17 17:09:50;;;;;;;;;12.67;12.67;;;;;15.75;62.13;-12950.84;4956513;28;46387;-86
2023/04/17 17:12:16;;;;;;;;;14.00;13.67;;;;;15.74;62.16;-12950.69;4955169;28;45738;-85
2023/04/17 17:14:41;;;;;;;;;11.00;9.00;;;;;14.60;62.23;-12932.94;4932470;28;45776;-86
2023/04/17 17:17:07;;;;;;;;;12.00;12.00;;;;;14.81;61.90;-12936.13;4948756;28;45866;-87
2023/04/17 17:19:32;;;;;;;;;13.33;10.67;;;;;14.29;62.24;-12928.13;4955834;28;47035;-86
2023/04/17 17:22:06;;;;;;;;;12.33;10.00;;;;;14.05;62.08;-12924.31;4954923;28;45981;-86
2023/04/17 17:24:58;;;;;;;;;12.67;11.00;;;;;14.09;62.13;-12925.03;4944186;28;45633;-85
2023/04/17 17:27:23;;;;;;;;;13.33;12.00;;;;;14.73;62.16;-12935.00;4938485;28;45560;-87
2023/04/17 17:29:54;;;;;;;;;13.00;12.33;;;;;14.95;62.29;-12938.44;4934985;28;48197;-86
2023/04/17 17:32:28;;;;;;;;;11.33;10.33;;;;;15.67;62.26;-12949.59;4947577;23;45856;-90
2023/04/17 17:34:53;;;;;;;;;12.67;12.67;;;;;15.67;62.35;-12949.50;4933941;28;45583;-83
2023/04/17 17:37:25;;;;;;;;;16.67;14.67;;;;;15.59;62.66;-12948.41;4934994;28;45573;-89
2023/04/17 17:40:04;;;;;;;;;;;;;;;;;;;;;
2023/04/17 17:42:30;;;;;;;;;13.67;13.00;;;;;15.13;62.38;-12941.22;4907044;23;73521;-94
2023/04/17 17:45:07;;;;;;;;;17.33;15.00;;;;;15.05;62.44;-12939.88;4910851;28;45563;-90
2023/04/17 17:48:05;;;;;;;;;17.67;15.00;;;;;14.10;62.46;-12925.19;4944555;28;45486;-90
2023/04/17 17:50:36;;;;;;;;;12.67;12.67;;;;;14.86;62.15;-12937.00;4933876;28;45751;-92
2023/04/17 17:58:28;;;;;;;;;18.33;15.33;;;;;15.58;62.33;-12948.16;4981614;23;45755;-93
2023/04/17 18:01:12;;;;;;;;;17.00;16.00;;;;;15.54;62.70;-12947.50;4933437;28;45661;-92
2023/04/17 18:03:40;;;;;;;;;16.33;15.33;;;;;14.46;62.46;-13264.25;4930547;28;45538;-94
2023/04/17 18:06:05;;;;;;;;;17.67;15.00;;;;;14.03;62.20;-12923.97;4910216;28;45651;-90
2023/04/17 18:08:31;;;;;;;;;14.33;13.00;;;;;14.62;62.03;-12933.25;4926187;28;45656;-94
2023/04/17 18:10:56;;;;;;;;;18.00;16.67;;;;;14.23;62.99;-12927.19;4987620;23;47280;-92
2023/04/17 18:13:31;;;;;;;;;16.67;16.00;;;;;14.07;62.23;-12924.69;4933157;28;45850;-84
2023/04/17 18:15:56;;;;;;;;;20.00;19.67;;;;;14.29;62.70;-12928.13;4940505;28;45555;-83
2023/04/17 18:18:22;;;;;;;;;17.33;14.67;;;;;15.01;62.48;-12939.22;4943199;28;45555;-83
2023/04/17 18:20:47;;;;;;;;;15.33;14.00;;;;;15.25;62.73;-12943.06;4946213;28;46881;-83
2023/04/17 18:23:13;;;;;;;;;17.67;13.33;;;;;15.31;62.38;-12944.00;4932245;28;45749;-91
2023/04/17 18:25:38;;;;;;;;;20.67;16.00;;;;;15.18;62.53;-12941.94;4943620;28;45492;-95
2023/04/17 18:28:13;;;;;;;;;15.33;14.67;;;;;14.70;62.49;-12934.53;4943586;28;45693;-93
2023/04/17 18:30:56;;;;;;;;;21.00;17.00;;;;;14.46;62.30;-12597.25;4945200;28;45529;-89
2023/04/17 18:33:21;;;;;;;;;17.00;15.67;;;;;14.07;62.19;-12924.69;4919849;28;45948;-86
2023/04/17 18:35:47;;;;;;;;;21.33;19.67;;;;;15.10;62.18;-12940.75;4929321;28;45517;-90
2023/04/17 18:38:13;;;;;;;;;19.00;15.33;;;;;15.36;62.60;-12610.72;4938908;28;45473;-84
2023/04/17 18:40:38;;;;;;;;;16.00;13.67;;;;;14.58;62.35;-12599.03;4945984;28;46755;-87
2023/04/17 18:43:04;;;;;;;;;23.33;19.33;;;;;13.86;62.13;-12588.22;4934219;28;46322;-80
2023/04/17 18:45:38;;;;;;;;;17.33;16.00;;;;;14.48;62.25;-12597.47;4950197;28;45569;-84
2023/04/17 18:48:04;;;;;;;;;21.33;16.67;;;;;14.87;62.32;-12603.41;4936050;28;45588;-87
2023/04/17 18:50:48;;;;;;;;;19.67;16.33;;;;;14.90;62.56;-12603.88;4928248;28;46867;-90
2023/04/17 18:53:13;;;;;;;;;22.00;19.00;;;;;14.24;62.67;-12593.84;4950482;28;45579;-81
2023/04/17 18:55:38;;;;;;;;;21.33;19.00;;;;;14.52;62.36;-12598.19;4926904;28;45656;-87
2023/04/17 18:58:04;;;;;;;;;16.33;15.67;;;;;15.29;62.53;-12609.66;4943986;28;45680;-84
2023/04/17 19:00:30;;;;;;;;;20.67;17.33;;;;;15.27;62.37;-12609.41;4939743;28;45511;-85